createdAt,value
2019-04-29T00:00:38.474Z,4.50
2019-04-29T00:01:38.475Z,4.60
2019-04-29T00:02:38.500Z,4.80
2019-04-29T00:03:38.462Z,4.60
2019-04-29T00:04:38.460Z,4.70
2019-04-29T00:05:38.461Z,4.90
2019-04-29T00:06:38.455Z,4.90
2019-04-29T00:07:38.480Z,5.10
2019-04-29T00:08:38.436Z,5.00
2019-04-29T00:09:38.434Z,4.90
2019-04-29T00:10:38.452Z,4.80
2019-04-29T00:11:38.427Z,4.80
2019-04-29T00:12:38.451Z,5.10
2019-04-29T00:13:38.420Z,4.40
2019-04-29T00:14:38.410Z,4.70
2019-04-29T00:15:38.404Z,5.30
2019-04-29T00:16:38.430Z,5.10
2019-04-29T00:17:38.399Z,5.00
2019-04-29T00:18:38.424Z,4.80
2019-04-29T00:19:38.398Z,5.10
2019-04-29T00:20:38.386Z,5.80
2019-04-29T00:21:38.437Z,5.20
2019-04-29T00:22:38.379Z,5.20
2019-04-29T00:23:38.371Z,5.20
2019-04-29T00:24:38.429Z,5.00
2019-04-29T00:25:38.365Z,5.20
2019-04-29T00:26:38.374Z,5.10
2019-04-29T00:27:38.352Z,5.20
2019-04-29T00:28:38.353Z,5.30
2019-04-29T00:29:38.386Z,5.00
2019-04-29T00:30:38.339Z,5.10
2019-04-29T00:31:38.331Z,5.40
2019-04-29T00:32:38.333Z,5.30
2019-04-29T00:33:38.324Z,4.90
2019-04-29T00:34:38.347Z,5.30
2019-04-29T00:35:38.433Z,4.60
2019-04-29T00:36:38.312Z,5.20
2019-04-29T00:37:38.308Z,5.10
2019-04-29T00:38:38.308Z,5.00
2019-04-29T00:39:38.329Z,5.00
2019-04-29T00:40:38.294Z,4.90
2019-04-29T00:41:38.296Z,5.00
2019-04-29T00:42:38.284Z,4.80
2019-04-29T00:43:38.280Z,4.70
2019-04-29T00:44:38.305Z,5.40
2019-04-29T00:45:38.268Z,5.40
2019-04-29T00:46:38.265Z,5.70
2019-04-29T00:47:38.260Z,5.00
2019-04-29T00:48:38.260Z,5.40
2019-04-29T00:49:38.276Z,5.40
2019-04-29T00:50:38.247Z,5.10
2019-04-29T00:51:38.241Z,5.10
2019-04-29T00:52:38.237Z,5.00
2019-04-29T00:53:38.230Z,4.90
2019-04-29T00:54:38.257Z,4.90
2019-04-29T00:55:38.228Z,5.60
2019-04-29T00:56:38.221Z,5.30
2019-04-29T00:57:38.258Z,5.50
2019-04-29T00:58:38.209Z,5.30
2019-04-29T00:59:38.207Z,4.70
2019-04-29T01:00:38.289Z,5.10
2019-04-29T01:01:38.197Z,5.20
2019-04-29T01:02:38.189Z,4.90
2019-04-29T01:03:41.041Z,5.40
2019-04-29T01:04:38.186Z,4.90
2019-04-29T01:05:38.207Z,5.10
2019-04-29T01:06:38.174Z,5.40
2019-04-29T01:07:38.195Z,5.60
2019-04-29T01:08:38.165Z,5.40
2019-04-29T01:09:38.158Z,5.70
2019-04-29T01:10:38.154Z,5.10
2019-04-29T01:11:38.178Z,5.50
2019-04-29T01:12:38.146Z,5.50
2019-04-29T01:13:38.142Z,5.50
2019-04-29T01:14:38.135Z,5.40
2019-04-29T01:15:38.135Z,5.30
2019-04-29T01:16:38.158Z,5.60
2019-04-29T01:17:38.125Z,5.00
2019-04-29T01:18:38.120Z,5.10
2019-04-29T01:19:38.114Z,5.00
2019-04-29T01:20:38.111Z,4.90
2019-04-29T01:21:38.130Z,4.90
2019-04-29T01:22:38.095Z,4.90
2019-04-29T01:23:38.098Z,4.90
2019-04-29T01:24:38.092Z,5.30
2019-04-29T01:25:38.082Z,5.00
2019-04-29T01:26:38.111Z,4.80
2019-04-29T01:27:38.080Z,5.10
2019-04-29T01:28:38.108Z,5.10
2019-04-29T01:29:38.067Z,5.10
2019-04-29T01:30:38.079Z,4.90
2019-04-29T01:31:38.064Z,4.50
2019-04-29T01:32:38.127Z,4.80
2019-04-29T01:33:38.051Z,5.30
2019-04-29T01:34:38.049Z,4.80
2019-04-29T01:35:38.045Z,5.10
2019-04-29T01:36:38.039Z,5.60
2019-04-29T01:37:38.079Z,5.30
2019-04-29T01:38:38.032Z,5.40
2019-04-29T01:39:38.029Z,5.50
2019-04-29T01:40:38.024Z,5.20
2019-04-29T01:41:38.016Z,5.10
2019-04-29T01:42:38.046Z,5.10
2019-04-29T01:43:38.011Z,5.30
2019-04-29T01:44:38.005Z,5.30
2019-04-29T01:45:37.998Z,5.50
2019-04-29T01:46:37.996Z,5.40
2019-04-29T01:47:38.016Z,5.40
2019-04-29T01:48:37.988Z,5.00
2019-04-29T01:49:37.986Z,5.10
2019-04-29T01:50:37.984Z,5.60
2019-04-29T01:51:37.974Z,5.80
2019-04-29T01:52:37.998Z,5.30
2019-04-29T01:53:37.965Z,5.30
2019-04-29T01:54:38.003Z,5.10
2019-04-29T01:55:37.952Z,4.90
2019-04-29T01:56:37.955Z,5.10
2019-04-29T01:57:37.946Z,5.30
2019-04-29T01:58:37.968Z,5.20
2019-04-29T01:59:37.968Z,5.00
2019-04-29T02:00:37.932Z,5.00
2019-04-29T02:01:37.931Z,4.90
2019-04-29T02:02:37.926Z,5.00
2019-04-29T02:03:37.925Z,4.70
2019-04-29T02:04:37.950Z,4.90
2019-04-29T02:05:37.913Z,4.90
2019-04-29T02:06:37.909Z,4.90
2019-04-29T02:07:37.908Z,4.70
2019-04-29T02:08:37.905Z,5.20
2019-04-29T02:09:37.926Z,5.00
2019-04-29T02:10:37.891Z,5.30
2019-04-29T02:11:37.885Z,5.00
2019-04-29T02:12:37.885Z,5.30
2019-04-29T02:13:37.878Z,4.60
2019-04-29T02:14:37.899Z,5.00
2019-04-29T02:15:37.873Z,5.20
2019-04-29T02:16:37.870Z,4.80
2019-04-29T02:17:37.870Z,4.80
2019-04-29T02:18:37.853Z,5.00
2019-04-29T02:19:37.883Z,5.00
2019-04-29T02:20:37.854Z,5.10
2019-04-29T02:21:37.845Z,5.20
2019-04-29T02:22:37.841Z,5.50
2019-04-29T02:23:37.860Z,4.90
2019-04-29T02:24:37.830Z,4.90
2019-04-29T02:25:37.850Z,5.00
2019-04-29T02:26:37.818Z,5.00
2019-04-29T02:27:37.822Z,5.10
2019-04-29T02:28:37.822Z,4.60
2019-04-29T02:29:37.815Z,4.60
2019-04-29T02:30:37.839Z,5.30
2019-04-29T02:31:37.802Z,5.20
2019-04-29T02:32:37.798Z,4.70
2019-04-29T02:33:37.796Z,5.20
2019-04-29T02:34:37.792Z,5.50
2019-04-29T02:35:37.822Z,5.40
2019-04-29T02:36:37.920Z,5.40
2019-04-29T02:37:37.775Z,5.40
2019-04-29T02:38:37.769Z,5.20
2019-04-29T02:39:37.769Z,5.00
2019-04-29T02:40:37.760Z,5.10
2019-04-29T02:41:37.787Z,5.10
2019-04-29T02:42:37.755Z,5.10
2019-04-29T02:43:37.752Z,5.40
2019-04-29T02:44:37.755Z,4.80
2019-04-29T02:45:37.746Z,5.20
2019-04-29T02:46:37.792Z,5.30
2019-04-29T02:47:37.736Z,4.90
2019-04-29T02:48:37.740Z,5.00
2019-04-29T02:49:37.724Z,5.20
2019-04-29T02:50:37.752Z,5.00
2019-04-29T02:51:37.720Z,4.80
2019-04-29T02:52:37.715Z,5.20
2019-04-29T02:53:37.707Z,5.30
2019-04-29T02:54:37.700Z,5.00
2019-04-29T02:55:37.710Z,5.80
2019-04-29T02:56:37.732Z,5.40
2019-04-29T02:57:37.692Z,5.50
2019-04-29T02:58:37.700Z,5.30
2019-04-29T02:59:37.686Z,5.90
2019-04-29T03:00:37.707Z,5.70
2019-04-29T03:01:37.707Z,5.70
2019-04-29T03:02:37.670Z,5.30
2019-04-29T03:03:37.674Z,5.70
2019-04-29T03:04:37.678Z,6.10
2019-04-29T03:05:39.923Z,5.70
2019-04-29T03:06:37.685Z,6.10
2019-04-29T03:07:37.649Z,5.80
2019-04-29T03:08:37.646Z,6.10
2019-04-29T03:09:37.641Z,5.40
2019-04-29T03:10:37.640Z,5.90
2019-04-29T03:11:37.663Z,5.70
2019-04-29T03:12:37.629Z,5.30
2019-04-29T03:13:37.648Z,6.30
2019-04-29T03:14:37.619Z,6.30
2019-04-29T03:15:37.620Z,5.90
2019-04-29T03:16:37.637Z,5.50
2019-04-29T03:17:37.633Z,6.40
2019-04-29T03:18:37.600Z,5.90
2019-04-29T03:19:37.597Z,6.20
2019-04-29T03:20:37.593Z,6.30
2019-04-29T03:21:37.586Z,7.30
2019-04-29T03:22:37.616Z,7.20
2019-04-29T03:23:37.582Z,7.00
2019-04-29T03:24:37.577Z,7.00
2019-04-29T03:25:37.574Z,6.90
2019-04-29T03:26:37.598Z,7.20
2019-04-29T03:27:37.572Z,7.90
2019-04-29T03:28:37.562Z,8.50
2019-04-29T03:29:37.569Z,8.20
2019-04-29T03:30:37.558Z,9.80
2019-04-29T03:31:39.399Z,9.20
2019-04-29T03:32:37.542Z,9.20
2019-04-29T03:33:37.536Z,9.50
2019-04-29T03:34:37.545Z,8.70
2019-04-29T03:35:37.557Z,9.10
2019-04-29T03:36:37.526Z,8.80
2019-04-29T03:37:37.523Z,8.10
2019-04-29T03:38:37.510Z,8.00
2019-04-29T03:39:37.510Z,8.20
2019-04-29T03:40:37.534Z,8.10
2019-04-29T03:41:37.506Z,9.10
2019-04-29T03:42:37.521Z,8.50
2019-04-29T03:43:37.494Z,8.50
2019-04-29T03:44:37.491Z,8.90
2019-04-29T03:45:37.484Z,9.10
2019-04-29T03:46:37.508Z,8.00
2019-04-29T03:47:37.582Z,8.10
2019-04-29T03:48:37.476Z,7.60
2019-04-29T03:49:37.480Z,8.30
2019-04-29T03:50:37.494Z,8.50
2019-04-29T03:51:37.458Z,8.10
2019-04-29T03:52:37.483Z,8.70
2019-04-29T03:53:37.465Z,8.10
2019-04-29T03:54:37.440Z,7.90
2019-04-29T03:55:40.525Z,8.30
2019-04-29T03:56:37.476Z,8.40
2019-04-29T03:57:37.445Z,8.10
2019-04-29T03:58:37.426Z,8.20
2019-04-29T03:59:37.421Z,8.20
2019-04-29T04:00:37.416Z,8.00
2019-04-29T04:01:37.444Z,7.70
2019-04-29T04:02:37.412Z,8.30
2019-04-29T04:03:37.413Z,7.90
2019-04-29T04:04:37.400Z,7.30
2019-04-29T04:05:37.402Z,7.60
2019-04-29T04:06:37.423Z,7.30
2019-04-29T04:07:37.390Z,7.10
2019-04-29T04:08:37.384Z,6.90
2019-04-29T04:09:37.377Z,6.40
2019-04-29T04:10:37.375Z,6.80
2019-04-29T04:11:37.406Z,6.40
2019-04-29T04:12:37.366Z,6.60
2019-04-29T04:13:37.359Z,6.20
2019-04-29T04:14:37.363Z,6.10
2019-04-29T04:15:37.359Z,6.30
2019-04-29T04:16:37.372Z,6.50
2019-04-29T04:17:37.345Z,6.10
2019-04-29T04:18:37.343Z,7.30
2019-04-29T04:19:37.337Z,6.80
2019-04-29T04:20:37.334Z,6.80
2019-04-29T04:21:37.353Z,6.10
2019-04-29T04:22:37.327Z,6.40
2019-04-29T04:23:37.322Z,6.80
2019-04-29T04:24:37.313Z,6.60
2019-04-29T04:25:37.319Z,6.40
2019-04-29T04:26:37.329Z,6.90
2019-04-29T04:27:37.305Z,7.00
2019-04-29T04:28:37.300Z,6.60
2019-04-29T04:29:37.293Z,6.70
2019-04-29T04:30:37.290Z,6.70
2019-04-29T04:31:37.311Z,6.50
2019-04-29T04:32:37.281Z,6.20
2019-04-29T04:33:37.287Z,6.40
2019-04-29T04:34:37.285Z,5.50
2019-04-29T04:35:37.268Z,5.70
2019-04-29T04:36:37.299Z,5.90
2019-04-29T04:37:37.261Z,5.90
2019-04-29T04:38:37.259Z,6.10
2019-04-29T04:39:37.254Z,5.80
2019-04-29T04:40:37.250Z,5.40
2019-04-29T04:41:37.277Z,5.50
2019-04-29T04:42:37.244Z,5.60
2019-04-29T04:43:37.269Z,5.40
2019-04-29T04:44:37.236Z,5.20
2019-04-29T04:45:37.231Z,5.70
2019-04-29T04:46:37.225Z,5.60
2019-04-29T04:47:37.249Z,5.90
2019-04-29T04:48:37.217Z,5.60
2019-04-29T04:49:37.232Z,5.80
2019-04-29T04:50:37.212Z,6.50
2019-04-29T04:51:37.209Z,5.60
2019-04-29T04:52:37.235Z,5.40
2019-04-29T04:53:37.228Z,5.70
2019-04-29T04:54:37.199Z,5.60
2019-04-29T04:55:37.189Z,5.90
2019-04-29T04:56:37.189Z,6.40
2019-04-29T04:57:37.180Z,6.30
2019-04-29T04:58:37.205Z,6.20
2019-04-29T04:59:37.186Z,5.90
2019-04-29T05:00:37.187Z,6.10
2019-04-29T05:01:37.169Z,5.80
2019-04-29T05:02:37.165Z,5.10
2019-04-29T05:03:37.190Z,5.70
2019-04-29T05:04:37.202Z,5.80
2019-04-29T05:05:37.157Z,5.60
2019-04-29T05:06:37.149Z,5.90
2019-04-29T05:07:37.146Z,5.70
2019-04-29T05:08:37.166Z,5.60
2019-04-29T05:09:37.158Z,5.60
2019-04-29T05:10:37.137Z,5.50
2019-04-29T05:11:37.135Z,5.50
2019-04-29T05:12:37.134Z,5.90
2019-04-29T05:13:37.154Z,5.50
2019-04-29T05:14:37.135Z,5.10
2019-04-29T05:15:37.122Z,5.10
2019-04-29T05:16:37.117Z,5.50
2019-04-29T05:17:37.115Z,5.80
2019-04-29T05:18:37.152Z,5.50
2019-04-29T05:19:37.106Z,6.40
2019-04-29T05:20:37.104Z,5.50
2019-04-29T05:21:37.098Z,5.70
2019-04-29T05:22:37.095Z,5.50
2019-04-29T05:23:37.122Z,5.70
2019-04-29T05:24:37.086Z,5.50
2019-04-29T05:25:37.090Z,5.80
2019-04-29T05:26:37.081Z,5.90
2019-04-29T05:27:37.085Z,5.70
2019-04-29T05:28:37.112Z,5.80
2019-04-29T05:29:37.071Z,6.20
2019-04-29T05:30:37.077Z,5.90
2019-04-29T05:31:37.067Z,6.20
2019-04-29T05:32:37.065Z,5.60
2019-04-29T05:33:37.089Z,5.70
2019-04-29T05:34:37.061Z,6.00
2019-04-29T05:35:40.111Z,5.60
2019-04-29T05:36:38.277Z,5.60
2019-04-29T05:37:37.042Z,6.10
2019-04-29T05:38:37.070Z,6.20
2019-04-29T05:39:37.039Z,6.20
2019-04-29T05:40:37.035Z,6.70
2019-04-29T05:41:37.035Z,6.20
2019-04-29T05:42:37.030Z,5.90
2019-04-29T05:43:37.054Z,6.20
2019-04-29T05:44:37.050Z,6.30
2019-04-29T05:45:37.027Z,5.70
2019-04-29T05:46:37.019Z,5.80
2019-04-29T05:47:37.015Z,5.40
2019-04-29T05:48:37.010Z,5.40
2019-04-29T05:49:37.383Z,6.00
2019-04-29T05:50:37.000Z,6.10
2019-04-29T05:51:37.001Z,5.90
2019-04-29T05:52:39.629Z,5.90
2019-04-29T05:53:37.053Z,6.30
2019-04-29T05:54:36.994Z,5.80
2019-04-29T05:55:36.988Z,5.50
2019-04-29T05:56:36.983Z,6.00
2019-04-29T05:57:36.978Z,5.50
2019-04-29T05:58:37.675Z,5.80
2019-04-29T05:59:36.980Z,5.70
2019-04-29T06:00:36.971Z,5.70
2019-04-29T06:01:36.967Z,6.00
2019-04-29T06:02:38.796Z,6.60
2019-04-29T06:03:37.844Z,5.60
2019-04-29T06:04:36.985Z,6.00
2019-04-29T06:05:36.966Z,6.00
2019-04-29T06:06:36.959Z,5.50
2019-04-29T06:07:36.953Z,6.10
2019-04-29T06:08:39.173Z,5.80
2019-04-29T06:09:36.968Z,5.70
2019-04-29T06:10:36.957Z,5.60
2019-04-29T06:11:36.938Z,5.90
2019-04-29T06:12:36.939Z,6.10
2019-04-29T06:13:36.932Z,5.90
2019-04-29T06:14:36.959Z,5.90
2019-04-29T06:15:37.032Z,5.50
2019-04-29T06:16:36.925Z,5.80
2019-04-29T06:17:40.052Z,5.30
2019-04-29T06:18:36.919Z,4.90
2019-04-29T06:19:39.320Z,5.70
2019-04-29T06:20:36.917Z,5.70
2019-04-29T06:21:36.912Z,6.00
2019-04-29T06:22:37.925Z,5.90
2019-04-29T06:23:36.905Z,5.50
2019-04-29T06:24:40.696Z,6.00
2019-04-29T06:25:36.897Z,5.90
2019-04-29T06:26:36.897Z,6.30
2019-04-29T06:27:36.893Z,6.00
2019-04-29T06:28:36.899Z,5.20
2019-04-29T06:29:36.925Z,5.20
2019-04-29T06:30:40.275Z,5.60
2019-04-29T06:31:36.893Z,6.00
2019-04-29T06:32:36.880Z,5.90
2019-04-29T06:33:36.882Z,5.70
2019-04-29T06:34:40.181Z,5.40
2019-04-29T06:35:36.958Z,5.30
2019-04-29T06:36:36.874Z,5.70
2019-04-29T06:37:36.873Z,5.60
2019-04-29T06:38:36.874Z,6.00
2019-04-29T06:39:36.901Z,5.70
2019-04-29T06:40:36.929Z,5.20
2019-04-29T06:41:40.489Z,5.30
2019-04-29T06:42:36.862Z,6.20
2019-04-29T06:43:37.816Z,6.10
2019-04-29T06:44:36.885Z,5.20
2019-04-29T06:45:36.890Z,5.50
2019-04-29T06:46:36.860Z,5.40
2019-04-29T06:47:36.862Z,5.30
2019-04-29T06:48:36.873Z,6.00
2019-04-29T06:49:36.854Z,5.40
2019-04-29T06:50:36.878Z,5.50
2019-04-29T06:51:36.854Z,5.40
2019-04-29T06:52:36.850Z,6.20
2019-04-29T06:53:36.841Z,5.40
2019-04-29T06:54:36.871Z,5.30
2019-04-29T06:55:36.856Z,5.80
2019-04-29T06:56:36.846Z,5.90
2019-04-29T06:57:36.899Z,6.40
2019-04-29T06:58:38.381Z,6.10
2019-04-29T06:59:36.869Z,6.20
2019-04-29T07:00:36.836Z,5.60
2019-04-29T07:01:37.580Z,5.60
2019-04-29T07:02:36.846Z,5.80
2019-04-29T07:03:36.838Z,5.70
2019-04-29T07:04:39.581Z,6.30
2019-04-29T07:05:36.863Z,6.60
2019-04-29T07:06:36.830Z,6.20
2019-04-29T07:07:36.826Z,6.00
2019-04-29T07:08:36.836Z,6.30
2019-04-29T07:09:36.851Z,6.20
2019-04-29T07:10:36.825Z,6.60
2019-04-29T07:11:38.384Z,6.80
2019-04-29T07:12:36.819Z,6.30
2019-04-29T07:13:36.818Z,6.30
2019-04-29T07:14:38.633Z,6.80
2019-04-29T07:15:36.815Z,6.30
2019-04-29T07:16:36.823Z,7.20
2019-04-29T07:17:41.308Z,6.30
2019-04-29T07:18:40.415Z,7.00
2019-04-29T07:19:36.839Z,6.20
2019-04-29T07:20:37.443Z,6.70
2019-04-29T07:21:36.808Z,6.30
2019-04-29T07:22:36.798Z,6.60
2019-04-29T07:23:36.799Z,6.60
2019-04-29T07:24:36.827Z,6.20
2019-04-29T07:25:36.796Z,6.90
2019-04-29T07:26:36.796Z,6.50
2019-04-29T07:27:43.024Z,6.40
2019-04-29T07:28:36.793Z,6.30
2019-04-29T07:29:38.120Z,6.40
2019-04-29T07:30:39.319Z,6.60
2019-04-29T07:31:36.787Z,6.90
2019-04-29T07:32:36.787Z,6.70
2019-04-29T07:33:36.792Z,5.80
2019-04-29T07:34:39.562Z,5.00
2019-04-29T07:35:38.234Z,5.30
2019-04-29T07:36:36.807Z,6.70
2019-04-29T07:37:36.782Z,5.70
2019-04-29T07:38:41.460Z,5.60
2019-04-29T07:39:36.775Z,6.40
2019-04-29T07:40:38.814Z,6.00
2019-04-29T07:41:36.773Z,5.70
2019-04-29T07:42:36.777Z,5.10
2019-04-29T07:43:38.497Z,6.40
2019-04-29T07:44:43.799Z,5.60
2019-04-29T07:45:44.089Z,5.70
2019-04-29T07:46:55.660Z,6.40
2019-04-29T07:47:36.767Z,4.70
2019-04-29T07:48:41.393Z,5.40
2019-04-29T07:49:36.796Z,6.40
2019-04-29T07:50:36.768Z,5.70
2019-04-29T07:51:39.446Z,5.30
2019-04-29T07:52:36.769Z,5.70
2019-04-29T07:53:44.766Z,5.10
2019-04-29T07:54:36.795Z,4.80
2019-04-29T07:55:36.763Z,5.20
2019-04-29T07:56:37.829Z,6.10
2019-04-29T07:57:36.766Z,6.20
2019-04-29T07:58:36.772Z,5.60
2019-04-29T07:59:38.456Z,5.60
2019-04-29T08:00:36.762Z,5.20
2019-04-29T08:01:36.765Z,5.70
2019-04-29T08:02:36.769Z,5.20
2019-04-29T08:03:36.766Z,5.10
2019-04-29T08:04:36.792Z,4.20
2019-04-29T08:05:37.311Z,5.90
2019-04-29T08:06:38.206Z,5.10
2019-04-29T08:07:36.792Z,4.70
2019-04-29T08:08:36.770Z,5.40
2019-04-29T08:09:39.873Z,4.90
2019-04-29T08:10:36.803Z,5.10
2019-04-29T08:11:36.765Z,4.80
2019-04-29T08:12:36.792Z,5.70
2019-04-29T08:13:36.772Z,4.50
2019-04-29T08:14:36.765Z,4.00
2019-04-29T08:15:41.083Z,4.60
2019-04-29T08:16:36.795Z,4.80
2019-04-29T08:17:36.765Z,5.80
2019-04-29T08:18:36.760Z,4.50
2019-04-29T08:19:36.766Z,5.50
2019-04-29T08:20:39.826Z,5.70
2019-04-29T08:21:36.788Z,6.20
2019-04-29T08:22:36.763Z,6.60
2019-04-29T08:23:41.038Z,6.00
2019-04-29T08:24:37.547Z,6.00
2019-04-29T08:25:36.764Z,4.40
2019-04-29T08:26:38.177Z,6.10
2019-04-29T08:27:39.960Z,6.30
2019-04-29T08:28:36.761Z,5.80
2019-04-29T08:29:37.409Z,5.10
2019-04-29T08:30:36.761Z,5.50
2019-04-29T08:31:36.791Z,5.80
2019-04-29T08:32:38.092Z,5.30
2019-04-29T08:33:36.758Z,6.90
2019-04-29T08:34:36.762Z,7.10
2019-04-29T08:35:37.032Z,6.70
2019-04-29T08:36:36.783Z,7.20
2019-04-29T08:37:36.754Z,7.30
2019-04-29T08:38:36.769Z,7.50
2019-04-29T08:39:36.760Z,7.70
2019-04-29T08:40:36.751Z,7.80
2019-04-29T08:41:36.774Z,8.20
2019-04-29T08:42:37.227Z,8.90
2019-04-29T08:43:36.748Z,8.50
2019-04-29T08:44:36.743Z,8.20
2019-04-29T08:45:39.046Z,8.50
2019-04-29T08:46:36.747Z,8.80
2019-04-29T08:47:36.767Z,7.80
2019-04-29T08:48:36.741Z,8.90
2019-04-29T08:49:36.737Z,8.50
2019-04-29T08:50:36.746Z,9.00
2019-04-29T08:51:36.739Z,7.90
2019-04-29T08:52:36.760Z,7.00
2019-04-29T08:53:36.730Z,6.80
2019-04-29T08:54:37.211Z,6.40
2019-04-29T08:55:36.792Z,8.50
2019-04-29T08:56:36.744Z,5.20
2019-04-29T08:57:37.559Z,8.90
2019-04-29T08:58:39.391Z,9.40
2019-04-29T08:59:36.715Z,9.00
2019-04-29T09:00:36.744Z,10.30
2019-04-29T09:01:36.742Z,8.00
2019-04-29T09:02:36.737Z,10.20
2019-04-29T09:03:40.520Z,9.90
2019-04-29T09:04:36.717Z,11.00
2019-04-29T09:05:36.711Z,9.70
2019-04-29T09:06:36.731Z,9.10
2019-04-29T09:07:36.709Z,9.70
2019-04-29T09:08:36.750Z,10.10
2019-04-29T09:09:36.691Z,10.50
2019-04-29T09:10:37.851Z,9.90
2019-04-29T09:11:36.691Z,9.70
2019-04-29T09:12:36.730Z,8.70
2019-04-29T09:13:36.692Z,10.10
2019-04-29T09:14:36.692Z,5.90
2019-04-29T09:15:36.681Z,9.30
2019-04-29T09:16:36.685Z,10.30
2019-04-29T09:17:36.713Z,7.30
2019-04-29T09:18:36.676Z,10.20
2019-04-29T09:19:39.286Z,9.70
2019-04-29T09:20:36.673Z,9.90
2019-04-29T09:21:36.668Z,8.00
2019-04-29T09:22:36.696Z,11.80
2019-04-29T09:23:36.664Z,8.50
2019-04-29T09:24:36.661Z,12.60
2019-04-29T09:25:36.720Z,11.20
2019-04-29T09:26:36.653Z,11.40
2019-04-29T09:27:36.683Z,8.90
2019-04-29T09:28:36.652Z,11.00
2019-04-29T09:29:36.720Z,10.90
2019-04-29T09:30:38.641Z,11.20
2019-04-29T09:31:36.644Z,10.50
2019-04-29T09:32:38.218Z,12.60
2019-04-29T09:33:36.641Z,11.50
2019-04-29T09:34:36.664Z,10.10
2019-04-29T09:35:38.836Z,9.50
2019-04-29T09:36:36.632Z,10.40
2019-04-29T09:37:36.630Z,12.20
2019-04-29T09:38:38.204Z,10.60
2019-04-29T09:39:43.270Z,12.60
2019-04-29T09:40:36.620Z,14.00
2019-04-29T09:41:36.617Z,8.00
2019-04-29T09:42:36.622Z,9.80
2019-04-29T09:43:36.641Z,10.80
2019-04-29T09:44:40.307Z,13.20
2019-04-29T09:45:36.677Z,9.10
2019-04-29T09:46:36.612Z,10.10
2019-04-29T09:47:36.599Z,13.40
2019-04-29T09:48:36.627Z,12.90
2019-04-29T09:49:36.597Z,11.30
2019-04-29T09:50:39.145Z,13.20
2019-04-29T09:51:36.597Z,12.60
2019-04-29T09:52:36.588Z,12.00
2019-04-29T09:53:36.615Z,16.50
2019-04-29T09:54:36.582Z,12.10
2019-04-29T09:55:40.075Z,15.50
2019-04-29T09:56:36.586Z,14.40
2019-04-29T09:57:36.583Z,16.00
2019-04-29T09:58:36.606Z,15.20
2019-04-29T09:59:36.597Z,14.40
2019-04-29T10:00:40.792Z,14.40
2019-04-29T10:01:36.564Z,17.20
2019-04-29T10:02:36.563Z,14.70
2019-04-29T10:03:36.555Z,15.70
2019-04-29T10:04:36.598Z,16.20
2019-04-29T10:05:36.676Z,17.50
2019-04-29T10:06:36.549Z,16.00
2019-04-29T10:07:36.551Z,17.20
2019-04-29T10:08:36.545Z,16.20
2019-04-29T10:09:36.582Z,12.70
2019-04-29T10:10:37.421Z,16.00
2019-04-29T10:11:36.539Z,12.80
2019-04-29T10:12:36.536Z,17.20
2019-04-29T10:13:36.530Z,18.10
2019-04-29T10:14:36.659Z,16.50
2019-04-29T10:15:36.529Z,17.10
2019-04-29T10:16:37.197Z,15.40
2019-04-29T10:17:36.522Z,15.90
2019-04-29T10:18:36.519Z,18.20
2019-04-29T10:19:36.544Z,16.90
2019-04-29T10:20:36.515Z,14.40
2019-04-29T10:21:36.512Z,12.60
2019-04-29T10:22:36.506Z,12.00
2019-04-29T10:23:36.535Z,7.90
2019-04-29T10:24:36.503Z,9.90
2019-04-29T10:25:36.523Z,9.40
2019-04-29T10:26:36.503Z,6.20
2019-04-29T10:27:36.515Z,9.70
2019-04-29T10:28:36.491Z,12.00
2019-04-29T10:29:36.515Z,8.70
2019-04-29T10:30:36.483Z,11.40
2019-04-29T10:31:36.552Z,14.10
2019-04-29T10:32:37.841Z,9.50
2019-04-29T10:33:36.475Z,11.50
2019-04-29T10:34:36.499Z,13.70
2019-04-29T10:35:36.472Z,12.80
2019-04-29T10:36:36.465Z,13.20
2019-04-29T10:37:36.463Z,16.30
2019-04-29T10:38:40.507Z,13.90
2019-04-29T10:39:36.490Z,11.30
2019-04-29T10:40:36.457Z,17.70
2019-04-29T10:41:40.324Z,15.90
2019-04-29T10:42:36.458Z,19.00
2019-04-29T10:43:36.451Z,15.70
2019-04-29T10:44:37.572Z,18.20
2019-04-29T10:45:36.444Z,17.60
2019-04-29T10:46:36.470Z,12.00
2019-04-29T10:47:36.442Z,18.00
2019-04-29T10:48:36.440Z,19.20
2019-04-29T10:49:39.180Z,13.40
2019-04-29T10:50:36.461Z,17.70
2019-04-29T10:51:36.429Z,16.90
2019-04-29T10:52:38.590Z,12.50
2019-04-29T10:53:36.425Z,12.70
2019-04-29T10:54:36.446Z,16.90
2019-04-29T10:55:36.422Z,9.70
2019-04-29T10:56:39.465Z,11.00
2019-04-29T10:57:36.424Z,11.30
2019-04-29T10:58:36.414Z,12.90
2019-04-29T10:59:36.463Z,9.10
2019-04-29T11:00:36.409Z,13.80
2019-04-29T11:01:36.405Z,11.20
2019-04-29T11:02:36.405Z,9.10
2019-04-29T11:03:36.400Z,13.10
2019-04-29T11:04:38.038Z,9.20
2019-04-29T11:05:36.397Z,14.40
2019-04-29T11:06:37.068Z,13.00
2019-04-29T11:07:36.393Z,15.70
2019-04-29T11:08:38.113Z,14.10
2019-04-29T11:09:36.409Z,8.50
2019-04-29T11:10:36.385Z,8.90
2019-04-29T11:11:36.378Z,10.20
2019-04-29T11:12:36.381Z,11.40
2019-04-29T11:13:45.930Z,10.50
2019-04-29T11:14:37.637Z,6.20
2019-04-29T11:15:36.376Z,9.20
2019-04-29T11:16:46.225Z,8.00
2019-04-29T11:17:39.765Z,10.70
2019-04-29T11:18:36.370Z,12.50
2019-04-29T11:19:39.896Z,8.00
2019-04-29T11:20:36.370Z,6.70
2019-04-29T11:21:38.903Z,8.00
2019-04-29T11:22:38.291Z,9.90
2019-04-29T11:23:36.355Z,8.10
2019-04-29T11:24:36.464Z,9.20
2019-04-29T11:25:36.350Z,8.60
2019-04-29T11:26:36.345Z,9.70
2019-04-29T11:27:36.354Z,6.30
2019-04-29T11:28:36.370Z,7.40
2019-04-29T11:29:36.394Z,6.80
2019-04-29T11:30:39.480Z,7.90
2019-04-29T11:31:37.326Z,6.70
2019-04-29T11:32:36.335Z,8.80
2019-04-29T11:33:40.154Z,6.70
2019-04-29T11:34:36.324Z,9.40
2019-04-29T11:35:36.329Z,8.20
2019-04-29T11:36:38.972Z,9.60
2019-04-29T11:37:36.323Z,11.20
2019-04-29T11:38:38.338Z,7.60
2019-04-29T11:39:36.314Z,6.90
2019-04-29T11:40:43.507Z,7.50
2019-04-29T11:41:36.309Z,8.30
2019-04-29T11:42:39.458Z,8.30
2019-04-29T11:43:36.304Z,7.80
2019-04-29T11:44:36.309Z,7.20
2019-04-29T11:45:38.612Z,6.70
2019-04-29T11:46:36.295Z,9.60
2019-04-29T11:47:36.303Z,7.80
2019-04-29T11:48:36.290Z,7.40
2019-04-29T11:49:36.287Z,6.70
2019-04-29T11:50:36.354Z,8.20
2019-04-29T11:51:48.630Z,8.30
2019-04-29T11:52:36.282Z,7.20
2019-04-29T11:53:36.368Z,9.50
2019-04-29T11:54:36.273Z,5.90
2019-04-29T11:55:36.278Z,7.80
2019-04-29T11:56:39.353Z,9.40
2019-04-29T11:57:41.022Z,13.00
2019-04-29T11:58:36.264Z,8.50
2019-04-29T11:59:36.259Z,6.40
2019-04-29T12:00:36.306Z,7.10
2019-04-29T12:01:39.297Z,7.10
2019-04-29T12:02:45.359Z,9.90
2019-04-29T12:03:37.469Z,7.00
2019-04-29T12:04:36.248Z,7.90
2019-04-29T12:05:40.119Z,13.20
2019-04-29T12:06:36.243Z,12.30
2019-04-29T12:07:36.258Z,11.70
2019-04-29T12:08:36.236Z,11.60
2019-04-29T12:09:36.240Z,13.50
2019-04-29T12:10:39.252Z,10.50
2019-04-29T12:11:37.240Z,17.70
2019-04-29T12:12:36.244Z,13.60
2019-04-29T12:13:36.249Z,19.60
2019-04-29T12:14:37.984Z,9.20
2019-04-29T12:15:36.243Z,14.70
2019-04-29T12:16:36.220Z,12.40
2019-04-29T12:17:36.230Z,9.80
2019-04-29T12:18:38.336Z,9.40
2019-04-29T12:19:36.208Z,10.80
2019-04-29T12:20:36.242Z,10.10
2019-04-29T12:21:36.275Z,6.90
2019-04-29T12:22:47.703Z,11.20
2019-04-29T12:23:36.192Z,12.70
2019-04-29T12:24:36.238Z,7.10
2019-04-29T12:25:36.516Z,9.60
2019-04-29T12:26:42.867Z,15.40
2019-04-29T12:27:36.190Z,16.40
2019-04-29T12:28:38.066Z,18.70
2019-04-29T12:29:36.176Z,19.10
2019-04-29T12:30:36.454Z,18.40
2019-04-29T12:31:36.169Z,18.00
2019-04-29T12:32:36.164Z,16.60
2019-04-29T12:33:36.944Z,17.10
2019-04-29T12:34:36.185Z,15.40
2019-04-29T12:35:36.186Z,17.30
2019-04-29T12:36:54.038Z,19.80
2019-04-29T12:37:36.149Z,9.50
2019-04-29T12:38:40.085Z,14.30
2019-04-29T12:39:43.266Z,13.10
2019-04-29T12:40:36.142Z,19.00
2019-04-29T12:41:48.126Z,14.60
2019-04-29T12:42:40.129Z,9.70
2019-04-29T12:43:36.146Z,14.10
2019-04-29T12:44:39.918Z,14.90
2019-04-29T12:45:36.130Z,16.20
2019-04-29T12:46:36.139Z,11.90
2019-04-29T12:47:36.181Z,8.40
2019-04-29T12:48:38.737Z,12.80
2019-04-29T12:49:36.122Z,15.20
2019-04-29T12:50:36.123Z,10.60
2019-04-29T12:51:36.146Z,12.70
2019-04-29T12:52:36.122Z,13.10
2019-04-29T12:53:36.121Z,13.90
2019-04-29T12:54:36.110Z,14.10
2019-04-29T12:55:44.041Z,13.50
2019-04-29T12:56:36.149Z,13.60
2019-04-29T12:57:36.831Z,12.10
2019-04-29T12:58:36.099Z,11.80
2019-04-29T12:59:37.266Z,14.80
2019-04-29T13:00:46.747Z,14.50
2019-04-29T13:01:50.998Z,16.70
2019-04-29T13:02:36.095Z,13.50
2019-04-29T13:03:39.399Z,12.50
2019-04-29T13:04:36.088Z,11.80
2019-04-29T13:05:36.084Z,10.80
2019-04-29T13:06:39.567Z,14.20
2019-04-29T13:07:36.082Z,15.20
2019-04-29T13:08:36.095Z,14.90
2019-04-29T13:09:36.087Z,15.00
2019-04-29T13:10:37.853Z,17.40
2019-04-29T13:11:45.651Z,15.10
2019-04-29T13:12:39.859Z,15.20